sensor_id;sensor_type;location;lat;lon;timestamp;P1;durP1;ratioP1;P2;durP2;ratioP2
47433;SDS011;33184;48.774;8.918;2023-06-26T00:00:34;6.20;;;5.57;;
47433;SDS011;33184;48.774;8.918;2023-06-26T00:05:57;8.02;;;5.68;;
47433;SDS011;33184;48.774;8.918;2023-06-26T00:11:21;8.00;;;5.55;;
47433;SDS011;33184;48.774;8.918;2023-06-26T00:16:42;6.97;;;6.00;;
47433;SDS011;33184;48.774;8.918;2023-06-26T00:22:02;6.40;;;5.80;;
47433;SDS011;33184;48.774;8.918;2023-06-26T00:27:23;7.13;;;5.50;;
47433;SDS011;33184;48.774;8.918;2023-06-26T00:32:44;5.57;;;4.97;;
47433;SDS011;33184;48.774;8.918;2023-06-26T00:38:04;6.75;;;6.07;;
47433;SDS011;33184;48.774;8.918;2023-06-26T00:43:25;8.40;;;5.70;;
47433;SDS011;33184;48.774;8.918;2023-06-26T00:48:46;6.70;;;6.00;;
47433;SDS011;33184;48.774;8.918;2023-06-26T00:54:07;7.43;;;6.50;;
47433;SDS011;33184;48.774;8.918;2023-06-26T00:59:28;6.57;;;5.85;;
47433;SDS011;33184;48.774;8.918;2023-06-26T01:04:49;6.78;;;5.63;;
47433;SDS011;33184;48.774;8.918;2023-06-26T01:10:11;6.47;;;5.55;;
47433;SDS011;33184;48.774;8.918;2023-06-26T01:15:31;6.97;;;5.47;;
47433;SDS011;33184;48.774;8.918;2023-06-26T01:20:52;6.43;;;5.72;;
47433;SDS011;33184;48.774;8.918;2023-06-26T01:26:14;8.40;;;5.80;;
47433;SDS011;33184;48.774;8.918;2023-06-26T01:31:36;7.82;;;6.72;;
47433;SDS011;33184;48.774;8.918;2023-06-26T01:36:58;8.07;;;6.85;;
47433;SDS011;33184;48.774;8.918;2023-06-26T01:42:20;6.55;;;5.78;;
47433;SDS011;33184;48.774;8.918;2023-06-26T01:47:40;6.97;;;6.10;;
47433;SDS011;33184;48.774;8.918;2023-06-26T01:53:09;7.40;;;6.55;;
47433;SDS011;33184;48.774;8.918;2023-06-26T01:58:32;8.65;;;5.88;;
47433;SDS011;33184;48.774;8.918;2023-06-26T02:03:53;7.00;;;5.97;;
47433;SDS011;33184;48.774;8.918;2023-06-26T02:09:14;6.57;;;5.85;;
47433;SDS011;33184;48.774;8.918;2023-06-26T02:14:35;7.15;;;6.20;;
47433;SDS011;33184;48.774;8.918;2023-06-26T02:19:55;9.00;;;5.60;;
47433;SDS011;33184;48.774;8.918;2023-06-26T02:25:17;6.93;;;5.78;;
47433;SDS011;33184;48.774;8.918;2023-06-26T02:30:38;8.02;;;5.72;;
47433;SDS011;33184;48.774;8.918;2023-06-26T02:35:58;9.43;;;6.65;;
47433;SDS011;33184;48.774;8.918;2023-06-26T02:41:19;7.57;;;6.40;;
47433;SDS011;33184;48.774;8.918;2023-06-26T02:46:40;8.98;;;6.32;;
47433;SDS011;33184;48.774;8.918;2023-06-26T02:52:01;7.00;;;5.88;;
47433;SDS011;33184;48.774;8.918;2023-06-26T02:57:23;7.82;;;7.03;;
47433;SDS011;33184;48.774;8.918;2023-06-26T03:02:44;7.72;;;7.03;;
47433;SDS011;33184;48.774;8.918;2023-06-26T03:08:07;9.30;;;6.97;;
47433;SDS011;33184;48.774;8.918;2023-06-26T03:13:28;6.78;;;5.80;;
47433;SDS011;33184;48.774;8.918;2023-06-26T03:18:49;6.55;;;5.80;;
47433;SDS011;33184;48.774;8.918;2023-06-26T03:24:09;7.95;;;6.22;;
47433;SDS011;33184;48.774;8.918;2023-06-26T03:29:30;6.30;;;5.63;;
47433;SDS011;33184;48.774;8.918;2023-06-26T03:34:51;5.95;;;5.35;;
47433;SDS011;33184;48.774;8.918;2023-06-26T03:40:14;9.68;;;6.05;;
47433;SDS011;33184;48.774;8.918;2023-06-26T03:45:34;7.60;;;6.55;;
47433;SDS011;33184;48.774;8.918;2023-06-26T03:50:55;8.13;;;6.32;;
47433;SDS011;33184;48.774;8.918;2023-06-26T03:56:16;7.30;;;6.13;;
47433;SDS011;33184;48.774;8.918;2023-06-26T04:01:37;7.40;;;6.30;;
47433;SDS011;33184;48.774;8.918;2023-06-26T04:06:59;11.52;;;7.07;;
47433;SDS011;33184;48.774;8.918;2023-06-26T04:12:20;7.35;;;6.55;;
47433;SDS011;33184;48.774;8.918;2023-06-26T04:17:40;10.13;;;7.35;;
47433;SDS011;33184;48.774;8.918;2023-06-26T04:23:01;12.75;;;6.82;;
47433;SDS011;33184;48.774;8.918;2023-06-26T04:28:21;8.45;;;6.82;;
47433;SDS011;33184;48.774;8.918;2023-06-26T04:33:42;9.25;;;6.95;;
47433;SDS011;33184;48.774;8.918;2023-06-26T04:39:02;11.20;;;7.05;;
47433;SDS011;33184;48.774;8.918;2023-06-26T04:44:24;7.97;;;6.57;;
47433;SDS011;33184;48.774;8.918;2023-06-26T04:49:45;11.00;;;7.22;;
47433;SDS011;33184;48.774;8.918;2023-06-26T04:55:08;8.50;;;6.00;;
47433;SDS011;33184;48.774;8.918;2023-06-26T05:00:29;11.02;;;6.03;;
47433;SDS011;33184;48.774;8.918;2023-06-26T05:05:50;9.43;;;5.82;;
47433;SDS011;33184;48.774;8.918;2023-06-26T05:11:10;10.10;;;6.20;;
47433;SDS011;33184;48.774;8.918;2023-06-26T05:16:31;10.18;;;6.78;;
47433;SDS011;33184;48.774;8.918;2023-06-26T05:21:51;12.05;;;6.50;;
47433;SDS011;33184;48.774;8.918;2023-06-26T05:27:12;10.65;;;6.15;;
47433;SDS011;33184;48.774;8.918;2023-06-26T05:32:41;10.70;;;5.80;;
47433;SDS011;33184;48.774;8.918;2023-06-26T05:38:06;7.53;;;6.05;;
47433;SDS011;33184;48.774;8.918;2023-06-26T05:43:27;8.90;;;5.25;;
47433;SDS011;33184;48.774;8.918;2023-06-26T05:48:47;9.35;;;6.35;;
47433;SDS011;33184;48.774;8.918;2023-06-26T05:54:08;7.45;;;5.82;;
47433;SDS011;33184;48.774;8.918;2023-06-26T05:59:29;10.15;;;5.72;;
47433;SDS011;33184;48.774;8.918;2023-06-26T06:04:51;14.27;;;5.13;;
47433;SDS011;33184;48.774;8.918;2023-06-26T06:10:12;15.30;;;5.72;;
47433;SDS011;33184;48.774;8.918;2023-06-26T06:15:33;8.52;;;5.13;;
47433;SDS011;33184;48.774;8.918;2023-06-26T06:20:53;5.75;;;5.15;;
47433;SDS011;33184;48.774;8.918;2023-06-26T06:26:14;20.08;;;7.45;;
47433;SDS011;33184;48.774;8.918;2023-06-26T06:31:34;8.55;;;4.65;;
47433;SDS011;33184;48.774;8.918;2023-06-26T06:36:55;8.25;;;4.75;;
47433;SDS011;33184;48.774;8.918;2023-06-26T06:42:15;7.25;;;4.72;;
47433;SDS011;33184;48.774;8.918;2023-06-26T06:47:36;5.05;;;4.57;;
47433;SDS011;33184;48.774;8.918;2023-06-26T06:52:57;8.55;;;4.32;;
47433;SDS011;33184;48.774;8.918;2023-06-26T06:58:17;8.63;;;3.88;;
47433;SDS011;33184;48.774;8.918;2023-06-26T07:03:39;4.80;;;4.03;;
47433;SDS011;33184;48.774;8.918;2023-06-26T07:09:00;4.10;;;3.25;;
47433;SDS011;33184;48.774;8.918;2023-06-26T07:14:21;3.80;;;2.45;;
47433;SDS011;33184;48.774;8.918;2023-06-26T07:19:41;5.70;;;2.67;;
47433;SDS011;33184;48.774;8.918;2023-06-26T07:25:02;4.78;;;2.88;;
47433;SDS011;33184;48.774;8.918;2023-06-26T07:30:24;2.45;;;2.20;;
47433;SDS011;33184;48.774;8.918;2023-06-26T07:35:44;2.20;;;2.00;;
47433;SDS011;33184;48.774;8.918;2023-06-26T07:41:05;5.57;;;2.20;;
47433;SDS011;33184;48.774;8.918;2023-06-26T07:46:25;2.63;;;2.42;;
47433;SDS011;33184;48.774;8.918;2023-06-26T07:51:46;4.22;;;2.40;;
47433;SDS011;33184;48.774;8.918;2023-06-26T07:57:07;2.22;;;2.00;;
47433;SDS011;33184;48.774;8.918;2023-06-26T08:02:28;2.30;;;2.10;;
47433;SDS011;33184;48.774;8.918;2023-06-26T08:07:49;3.90;;;2.08;;
47433;SDS011;33184;48.774;8.918;2023-06-26T08:13:10;4.68;;;2.50;;
47433;SDS011;33184;48.774;8.918;2023-06-26T08:18:30;2.97;;;2.67;;
47433;SDS011;33184;48.774;8.918;2023-06-26T08:23:51;2.58;;;2.35;;
47433;SDS011;33184;48.774;8.918;2023-06-26T08:29:11;3.08;;;2.50;;
47433;SDS011;33184;48.774;8.918;2023-06-26T08:34:32;3.05;;;2.65;;
47433;SDS011;33184;48.774;8.918;2023-06-26T08:39:53;2.72;;;2.50;;
47433;SDS011;33184;48.774;8.918;2023-06-26T08:45:13;2.85;;;2.40;;
47433;SDS011;33184;48.774;8.918;2023-06-26T08:50:34;2.95;;;2.65;;
47433;SDS011;33184;48.774;8.918;2023-06-26T08:55:57;5.93;;;3.10;;
47433;SDS011;33184;48.774;8.918;2023-06-26T09:01:18;5.00;;;2.35;;
47433;SDS011;33184;48.774;8.918;2023-06-26T09:06:39;4.28;;;2.90;;
47433;SDS011;33184;48.774;8.918;2023-06-26T09:12:01;3.55;;;2.17;;
47433;SDS011;33184;48.774;8.918;2023-06-26T09:17:24;3.30;;;3.00;;
47433;SDS011;33184;48.774;8.918;2023-06-26T09:22:47;4.53;;;2.72;;
47433;SDS011;33184;48.774;8.918;2023-06-26T09:28:08;5.28;;;2.63;;
47433;SDS011;33184;48.774;8.918;2023-06-26T09:33:33;3.33;;;2.45;;
47433;SDS011;33184;48.774;8.918;2023-06-26T09:38:56;12.73;;;4.20;;
47433;SDS011;33184;48.774;8.918;2023-06-26T09:44:16;2.83;;;2.63;;
47433;SDS011;33184;48.774;8.918;2023-06-26T09:49:41;4.95;;;2.95;;
47433;SDS011;33184;48.774;8.918;2023-06-26T09:55:09;6.07;;;3.10;;
47433;SDS011;33184;48.774;8.918;2023-06-26T10:00:30;4.03;;;3.63;;
47433;SDS011;33184;48.774;8.918;2023-06-26T10:05:52;7.82;;;3.90;;
47433;SDS011;33184;48.774;8.918;2023-06-26T10:11:14;3.58;;;3.28;;
47433;SDS011;33184;48.774;8.918;2023-06-26T10:16:39;4.47;;;4.07;;
47433;SDS011;33184;48.774;8.918;2023-06-26T10:22:02;3.83;;;3.53;;
47433;SDS011;33184;48.774;8.918;2023-06-26T10:27:25;4.85;;;3.38;;
47433;SDS011;33184;48.774;8.918;2023-06-26T10:32:50;6.75;;;3.58;;
47433;SDS011;33184;48.774;8.918;2023-06-26T10:38:11;5.57;;;3.70;;
47433;SDS011;33184;48.774;8.918;2023-06-26T10:43:32;5.40;;;4.20;;
47433;SDS011;33184;48.774;8.918;2023-06-26T10:48:56;6.00;;;3.83;;
47433;SDS011;33184;48.774;8.918;2023-06-26T10:54:20;4.60;;;3.88;;
47433;SDS011;33184;48.774;8.918;2023-06-26T10:59:41;5.97;;;3.92;;
47433;SDS011;33184;48.774;8.918;2023-06-26T11:05:01;5.18;;;3.70;;
47433;SDS011;33184;48.774;8.918;2023-06-26T11:10:26;4.85;;;4.43;;
47433;SDS011;33184;48.774;8.918;2023-06-26T11:15:47;5.13;;;3.80;;
47433;SDS011;33184;48.774;8.918;2023-06-26T11:21:10;4.90;;;3.55;;
47433;SDS011;33184;48.774;8.918;2023-06-26T11:26:43;5.10;;;3.97;;
47433;SDS011;33184;48.774;8.918;2023-06-26T11:32:05;7.57;;;4.00;;
47433;SDS011;33184;48.774;8.918;2023-06-26T11:37:26;3.97;;;3.63;;
47433;SDS011;33184;48.774;8.918;2023-06-26T11:42:47;5.90;;;3.90;;
47433;SDS011;33184;48.774;8.918;2023-06-26T11:48:07;8.95;;;3.67;;
47433;SDS011;33184;48.774;8.918;2023-06-26T11:53:28;5.15;;;4.13;;
47433;SDS011;33184;48.774;8.918;2023-06-26T12:04:17;8.80;;;3.47;;
47433;SDS011;33184;48.774;8.918;2023-06-26T12:09:43;5.72;;;4.00;;
47433;SDS011;33184;48.774;8.918;2023-06-26T12:15:06;5.68;;;3.80;;
47433;SDS011;33184;48.774;8.918;2023-06-26T12:20:27;6.30;;;3.70;;
47433;SDS011;33184;48.774;8.918;2023-06-26T12:25:52;5.20;;;3.33;;
47433;SDS011;33184;48.774;8.918;2023-06-26T12:31:17;4.05;;;3.58;;
47433;SDS011;33184;48.774;8.918;2023-06-26T12:36:41;4.32;;;3.92;;
47433;SDS011;33184;48.774;8.918;2023-06-26T12:42:03;5.45;;;3.35;;
47433;SDS011;33184;48.774;8.918;2023-06-26T12:47:24;4.72;;;2.83;;
47433;SDS011;33184;48.774;8.918;2023-06-26T12:52:46;6.22;;;3.35;;
47433;SDS011;33184;48.774;8.918;2023-06-26T12:58:07;3.53;;;2.75;;
47433;SDS011;33184;48.774;8.918;2023-06-26T13:03:27;3.08;;;2.78;;
47433;SDS011;33184;48.774;8.918;2023-06-26T13:08:48;2.97;;;2.70;;
47433;SDS011;33184;48.774;8.918;2023-06-26T13:14:08;3.70;;;2.33;;
47433;SDS011;33184;48.774;8.918;2023-06-26T13:19:29;5.72;;;2.53;;
47433;SDS011;33184;48.774;8.918;2023-06-26T13:24:50;5.72;;;2.50;;
47433;SDS011;33184;48.774;8.918;2023-06-26T13:30:11;3.08;;;2.50;;
47433;SDS011;33184;48.774;8.918;2023-06-26T13:35:32;3.97;;;2.63;;
47433;SDS011;33184;48.774;8.918;2023-06-26T13:40:53;3.10;;;2.72;;
47433;SDS011;33184;48.774;8.918;2023-06-26T13:46:15;4.25;;;1.95;;
47433;SDS011;33184;48.774;8.918;2023-06-26T13:51:36;4.18;;;2.10;;
47433;SDS011;33184;48.774;8.918;2023-06-26T13:56:56;3.10;;;2.03;;
47433;SDS011;33184;48.774;8.918;2023-06-26T14:02:17;2.47;;;2.03;;
47433;SDS011;33184;48.774;8.918;2023-06-26T14:07:37;1.90;;;1.70;;
47433;SDS011;33184;48.774;8.918;2023-06-26T14:13:03;4.28;;;1.73;;
47433;SDS011;33184;48.774;8.918;2023-06-26T14:18:24;1.80;;;1.25;;
47433;SDS011;33184;48.774;8.918;2023-06-26T14:23:44;2.28;;;1.80;;
47433;SDS011;33184;48.774;8.918;2023-06-26T14:29:06;2.40;;;1.52;;
47433;SDS011;33184;48.774;8.918;2023-06-26T14:34:26;1.70;;;1.20;;
47433;SDS011;33184;48.774;8.918;2023-06-26T14:39:47;6.57;;;1.58;;
47433;SDS011;33184;48.774;8.918;2023-06-26T14:45:08;1.85;;;1.52;;
47433;SDS011;33184;48.774;8.918;2023-06-26T14:50:29;4.30;;;2.03;;
47433;SDS011;33184;48.774;8.918;2023-06-26T14:55:49;4.18;;;2.28;;
47433;SDS011;33184;48.774;8.918;2023-06-26T15:01:10;3.53;;;2.63;;
47433;SDS011;33184;48.774;8.918;2023-06-26T15:06:30;5.28;;;2.63;;
47433;SDS011;33184;48.774;8.918;2023-06-26T15:11:51;4.78;;;2.85;;
47433;SDS011;33184;48.774;8.918;2023-06-26T15:17:11;2.78;;;2.38;;
47433;SDS011;33184;48.774;8.918;2023-06-26T15:22:32;6.20;;;2.90;;
47433;SDS011;33184;48.774;8.918;2023-06-26T15:27:53;8.82;;;3.38;;
47433;SDS011;33184;48.774;8.918;2023-06-26T15:33:14;5.97;;;3.08;;
47433;SDS011;33184;48.774;8.918;2023-06-26T15:38:34;5.07;;;4.03;;
47433;SDS011;33184;48.774;8.918;2023-06-26T15:43:55;6.30;;;3.58;;
47433;SDS011;33184;48.774;8.918;2023-06-26T15:49:15;6.22;;;4.50;;
47433;SDS011;33184;48.774;8.918;2023-06-26T15:54:36;6.18;;;4.03;;
47433;SDS011;33184;48.774;8.918;2023-06-26T15:59:57;6.45;;;4.32;;
47433;SDS011;33184;48.774;8.918;2023-06-26T16:05:18;7.60;;;4.63;;
47433;SDS011;33184;48.774;8.918;2023-06-26T16:10:39;4.05;;;3.55;;
47433;SDS011;33184;48.774;8.918;2023-06-26T16:16:00;6.97;;;3.17;;
47433;SDS011;33184;48.774;8.918;2023-06-26T16:21:20;3.72;;;2.85;;
47433;SDS011;33184;48.774;8.918;2023-06-26T16:26:41;3.25;;;2.25;;
47433;SDS011;33184;48.774;8.918;2023-06-26T16:32:02;3.35;;;1.15;;
47433;SDS011;33184;48.774;8.918;2023-06-26T16:37:23;8.40;;;3.25;;
47433;SDS011;33184;48.774;8.918;2023-06-26T16:42:44;1.80;;;0.77;;
47433;SDS011;33184;48.774;8.918;2023-06-26T16:48:05;2.92;;;0.90;;
47433;SDS011;33184;48.774;8.918;2023-06-26T16:53:25;1.75;;;0.90;;
47433;SDS011;33184;48.774;8.918;2023-06-26T16:58:46;2.03;;;0.80;;
47433;SDS011;33184;48.774;8.918;2023-06-26T17:04:06;3.63;;;0.65;;
47433;SDS011;33184;48.774;8.918;2023-06-26T17:09:27;5.00;;;0.90;;
47433;SDS011;33184;48.774;8.918;2023-06-26T17:14:48;4.55;;;0.68;;
47433;SDS011;33184;48.774;8.918;2023-06-26T17:20:08;3.67;;;0.70;;
47433;SDS011;33184;48.774;8.918;2023-06-26T17:25:29;1.30;;;0.60;;
47433;SDS011;33184;48.774;8.918;2023-06-26T17:30:50;3.47;;;0.73;;
47433;SDS011;33184;48.774;8.918;2023-06-26T17:36:10;3.78;;;0.80;;
47433;SDS011;33184;48.774;8.918;2023-06-26T17:41:32;4.25;;;0.88;;
47433;SDS011;33184;48.774;8.918;2023-06-26T17:46:52;4.10;;;0.75;;
47433;SDS011;33184;48.774;8.918;2023-06-26T17:52:13;3.78;;;0.80;;
47433;SDS011;33184;48.774;8.918;2023-06-26T17:57:33;1.15;;;0.70;;
47433;SDS011;33184;48.774;8.918;2023-06-26T18:02:54;4.53;;;1.05;;
47433;SDS011;33184;48.774;8.918;2023-06-26T18:08:15;1.38;;;0.57;;
47433;SDS011;33184;48.774;8.918;2023-06-26T18:13:36;2.65;;;0.70;;
47433;SDS011;33184;48.774;8.918;2023-06-26T18:18:56;4.13;;;0.80;;
47433;SDS011;33184;48.774;8.918;2023-06-26T18:24:18;3.42;;;0.80;;
47433;SDS011;33184;48.774;8.918;2023-06-26T18:29:38;1.55;;;0.55;;
47433;SDS011;33184;48.774;8.918;2023-06-26T18:34:59;4.40;;;0.60;;
47433;SDS011;33184;48.774;8.918;2023-06-26T18:40:20;2.42;;;0.50;;
47433;SDS011;33184;48.774;8.918;2023-06-26T18:45:41;2.72;;;0.60;;
47433;SDS011;33184;48.774;8.918;2023-06-26T18:51:01;2.97;;;0.60;;
47433;SDS011;33184;48.774;8.918;2023-06-26T18:56:22;3.22;;;0.50;;
47433;SDS011;33184;48.774;8.918;2023-06-26T19:01:43;5.07;;;0.60;;
47433;SDS011;33184;48.774;8.918;2023-06-26T19:07:04;2.38;;;0.60;;
47433;SDS011;33184;48.774;8.918;2023-06-26T19:12:25;3.35;;;0.50;;
47433;SDS011;33184;48.774;8.918;2023-06-26T19:17:45;0.73;;;0.50;;
47433;SDS011;33184;48.774;8.918;2023-06-26T19:23:06;2.38;;;1.17;;
47433;SDS011;33184;48.774;8.918;2023-06-26T19:28:26;3.35;;;0.60;;
47433;SDS011;33184;48.774;8.918;2023-06-26T19:33:47;7.05;;;1.60;;
47433;SDS011;33184;48.774;8.918;2023-06-26T19:39:08;3.70;;;0.45;;
47433;SDS011;33184;48.774;8.918;2023-06-26T19:44:28;1.10;;;0.45;;
47433;SDS011;33184;48.774;8.918;2023-06-26T19:49:49;4.63;;;0.60;;
47433;SDS011;33184;48.774;8.918;2023-06-26T19:55:09;4.25;;;0.40;;
47433;SDS011;33184;48.774;8.918;2023-06-26T20:00:31;2.35;;;0.50;;
47433;SDS011;33184;48.774;8.918;2023-06-26T20:05:51;2.95;;;0.90;;
47433;SDS011;33184;48.774;8.918;2023-06-26T20:11:12;3.85;;;0.50;;
47433;SDS011;33184;48.774;8.918;2023-06-26T20:16:33;8.68;;;1.15;;
47433;SDS011;33184;48.774;8.918;2023-06-26T20:21:53;3.30;;;0.43;;
47433;SDS011;33184;48.774;8.918;2023-06-26T20:27:14;2.55;;;0.50;;
47433;SDS011;33184;48.774;8.918;2023-06-26T20:32:34;3.25;;;0.50;;
47433;SDS011;33184;48.774;8.918;2023-06-26T20:37:55;1.63;;;0.50;;
47433;SDS011;33184;48.774;8.918;2023-06-26T20:43:16;3.75;;;0.90;;
47433;SDS011;33184;48.774;8.918;2023-06-26T20:48:36;2.97;;;0.60;;
47433;SDS011;33184;48.774;8.918;2023-06-26T20:53:57;1.10;;;0.60;;
47433;SDS011;33184;48.774;8.918;2023-06-26T20:59:18;1.70;;;0.80;;
47433;SDS011;33184;48.774;8.918;2023-06-26T21:04:39;5.68;;;0.70;;
47433;SDS011;33184;48.774;8.918;2023-06-26T21:09:59;3.53;;;0.70;;
47433;SDS011;33184;48.774;8.918;2023-06-26T21:15:20;1.30;;;0.55;;
47433;SDS011;33184;48.774;8.918;2023-06-26T21:20:41;5.88;;;0.75;;
47433;SDS011;33184;48.774;8.918;2023-06-26T21:26:01;1.88;;;0.40;;
47433;SDS011;33184;48.774;8.918;2023-06-26T21:31:22;1.42;;;0.57;;
47433;SDS011;33184;48.774;8.918;2023-06-26T21:36:43;4.10;;;0.60;;
47433;SDS011;33184;48.774;8.918;2023-06-26T21:42:03;4.78;;;1.40;;
47433;SDS011;33184;48.774;8.918;2023-06-26T21:47:24;5.80;;;1.15;;
47433;SDS011;33184;48.774;8.918;2023-06-26T21:52:45;5.07;;;0.65;;
47433;SDS011;33184;48.774;8.918;2023-06-26T21:58:06;2.08;;;0.70;;
47433;SDS011;33184;48.774;8.918;2023-06-26T22:03:26;5.72;;;0.57;;
47433;SDS011;33184;48.774;8.918;2023-06-26T22:08:46;2.83;;;0.80;;
47433;SDS011;33184;48.774;8.918;2023-06-26T22:14:07;1.70;;;0.73;;
47433;SDS011;33184;48.774;8.918;2023-06-26T22:19:28;3.85;;;0.65;;
47433;SDS011;33184;48.774;8.918;2023-06-26T22:24:48;2.00;;;0.70;;
47433;SDS011;33184;48.774;8.918;2023-06-26T22:30:09;2.05;;;0.60;;
47433;SDS011;33184;48.774;8.918;2023-06-26T22:35:30;1.92;;;0.57;;
47433;SDS011;33184;48.774;8.918;2023-06-26T22:40:51;3.35;;;0.60;;
47433;SDS011;33184;48.774;8.918;2023-06-26T22:46:11;3.33;;;0.70;;
47433;SDS011;33184;48.774;8.918;2023-06-26T22:51:32;2.72;;;0.60;;
47433;SDS011;33184;48.774;8.918;2023-06-26T22:56:52;2.25;;;0.70;;
47433;SDS011;33184;48.774;8.918;2023-06-26T23:02:13;3.65;;;0.70;;
47433;SDS011;33184;48.774;8.918;2023-06-26T23:07:34;2.55;;;0.75;;
47433;SDS011;33184;48.774;8.918;2023-06-26T23:12:55;4.00;;;0.88;;
47433;SDS011;33184;48.774;8.918;2023-06-26T23:18:16;4.03;;;1.25;;
47433;SDS011;33184;48.774;8.918;2023-06-26T23:23:38;4.88;;;0.88;;
47433;SDS011;33184;48.774;8.918;2023-06-26T23:28:58;2.20;;;0.60;;
47433;SDS011;33184;48.774;8.918;2023-06-26T23:34:19;3.70;;;1.00;;
47433;SDS011;33184;48.774;8.918;2023-06-26T23:39:40;2.85;;;1.10;;
47433;SDS011;33184;48.774;8.918;2023-06-26T23:45:03;2.13;;;0.65;;
47433;SDS011;33184;48.774;8.918;2023-06-26T23:50:27;3.28;;;1.25;;
47433;SDS011;33184;48.774;8.918;2023-06-26T23:55:48;1.35;;;0.70;;
